Skip Navigation LinksHome page > Weather > Current weather Skip Navigation Links

Current Weather

Eureka, Nunavut

For information only: do not use for flight planning or navigation.
Latest weather
Observation time Saturday, May 23, 2015 4:00 AM CDT
Local time Saturday, May 23, 2015 5:15 AM CDT
Flight conditions Visual Meteorological Conditions
Winds
Wind direction North (350°)
Wind speed 12 mph
Visibility 15 mi.
Sky condition
Ceiling 20,000 ft. overcast
Cloud layer few clouds 3,500 ft.
Cloud layer few clouds 6,000 ft.
Cloud layer scattered clouds 12,000 ft.
Cloud layer overcast 20,000 ft.
Temperature 9°F
Dewpoint 1°F
Altimeter 29.54 in.Hg
Derived measurements
Relative humidity 72%
Wind chill -6°F
Density altitude -3015 ft.
Sea-level pressure 29.54 in.Hg
METAR CWEU 230900Z 35010KT 15SM FEW035 FEW060 SCT120 OVC200 M13/M17 A2954 RMK SC1SC1AC1CI1 SLP004

Settings

Location code

InnerDrive.Weather 4.0.5567.0 Release CLR 4.0.30319.34014
Copyright ©2015 Inner Drive Technology. All rights reserved. Portions Copyright ©1986-2015 David Braverman.

Find weather

Site navigation


Skip Navigation Links

Place info

Page info

PayPal - The safer, easier way to pay online!

Return home.

Copyright ©2015 Inner Drive Technology. Purveyors of fine, hand-crafted computer software. Page printed 2015-05-23T10:15:21 UTC.